createdAt,value
2023-05-08T00:00:42.499Z,1017.35
2023-05-08T00:02:27.573Z,1017.38
2023-05-08T00:04:12.669Z,1017.51
2023-05-08T00:05:57.474Z,1017.43
2023-05-08T00:07:42.502Z,1017.42
2023-05-08T00:09:27.584Z,1017.46
2023-05-08T00:11:12.480Z,1017.4
2023-05-08T00:12:57.521Z,1017.43
2023-05-08T00:14:42.530Z,1017.37
2023-05-08T00:16:27.496Z,1017.43
2023-05-08T00:18:12.488Z,1017.39
2023-05-08T00:19:57.595Z,1017.41
2023-05-08T00:21:42.506Z,1017.4
2023-05-08T00:23:27.509Z,1017.43
2023-05-08T00:25:12.840Z,1017.46
2023-05-08T00:26:57.506Z,1017.44
2023-05-08T00:28:42.495Z,1017.28
2023-05-08T00:30:27.595Z,1017.39
2023-05-08T00:32:12.526Z,1017.42
2023-05-08T00:33:57.504Z,1017.34
2023-05-08T00:35:42.574Z,1017.35
2023-05-08T00:37:27.560Z,1017.4
2023-05-08T00:39:12.520Z,1017.46
2023-05-08T00:40:57.530Z,1017.41
2023-05-08T00:42:42.533Z,1017.43
2023-05-08T00:44:27.501Z,1017.47
2023-05-08T00:46:12.603Z,1017.43
2023-05-08T00:47:57.561Z,1017.42
2023-05-08T00:49:42.524Z,1017.4
2023-05-08T00:51:27.850Z,1017.34
2023-05-08T00:53:12.538Z,1017.42
2023-05-08T00:54:57.818Z,1017.29
2023-05-08T00:56:42.580Z,1017.39
2023-05-08T00:58:27.535Z,1017.48
2023-05-08T01:00:12.669Z,1017.45
2023-05-08T01:01:57.877Z,1017.48
2023-05-08T01:03:42.686Z,1017.42
2023-05-08T01:05:27.575Z,1017.45
2023-05-08T01:07:12.645Z,1017.43
2023-05-08T01:08:57.599Z,1017.43
2023-05-08T01:10:42.534Z,1017.33
2023-05-08T01:12:27.590Z,1017.39
2023-05-08T01:14:12.607Z,1017.4
2023-05-08T01:15:57.593Z,1017.41
2023-05-08T01:17:42.678Z,1017.37
2023-05-08T01:19:27.608Z,1017.31
2023-05-08T01:21:12.574Z,1017.4
2023-05-08T01:22:57.641Z,1017.47
2023-05-08T01:24:42.615Z,1017.39
2023-05-08T01:26:27.603Z,1017.49
2023-05-08T01:28:12.666Z,1017.49
2023-05-08T01:29:57.614Z,1017.47
2023-05-08T01:31:42.596Z,1017.49
2023-05-08T01:33:27.680Z,1017.45
2023-05-08T01:35:12.656Z,1017.54
2023-05-08T01:36:57.639Z,1017.56
2023-05-08T01:38:42.742Z,1017.47
2023-05-08T01:40:27.596Z,1017.44
2023-05-08T01:42:12.621Z,1017.47
2023-05-08T01:43:57.698Z,1017.44
2023-05-08T01:45:42.650Z,1017.42
2023-05-08T01:47:27.665Z,1017.37
2023-05-08T01:49:12.736Z,1017.45
2023-05-08T01:50:57.640Z,1017.46
2023-05-08T01:52:42.660Z,1017.48
2023-05-08T01:54:27.825Z,1017.41
2023-05-08T01:56:12.628Z,1017.44
2023-05-08T01:57:57.667Z,1017.46
2023-05-08T01:59:42.712Z,1017.6
2023-05-08T02:01:27.688Z,1017.62
2023-05-08T02:03:12.703Z,1017.65
2023-05-08T02:04:57.703Z,1017.62
2023-05-08T02:06:42.653Z,1017.62
2023-05-08T02:08:27.670Z,1017.59
2023-05-08T02:10:12.860Z,1017.64
2023-05-08T02:11:57.664Z,1017.61
2023-05-08T02:13:42.663Z,1017.79
2023-05-08T02:15:27.740Z,1017.73
2023-05-08T02:17:12.698Z,1017.77
2023-05-08T02:18:57.670Z,1017.75
2023-05-08T02:20:42.718Z,1017.74
2023-05-08T02:22:27.687Z,1017.7
2023-05-08T02:24:12.704Z,1017.78
2023-05-08T02:25:57.764Z,1017.68
2023-05-08T02:27:42.665Z,1017.75
2023-05-08T02:29:27.693Z,1017.8
2023-05-08T02:31:12.709Z,1017.72
2023-05-08T02:33:00.360Z,1017.74
2023-05-08T02:34:48.170Z,1017.72
2023-05-08T02:36:27.746Z,1017.72
2023-05-08T02:38:12.676Z,1017.8
2023-05-08T02:39:57.729Z,1017.7
2023-05-08T02:41:42.775Z,1017.72
2023-05-08T02:43:27.710Z,1017.78
2023-05-08T02:45:12.714Z,1017.79
2023-05-08T02:46:57.756Z,1017.75
2023-05-08T02:48:42.721Z,1017.7
2023-05-08T02:50:27.685Z,1017.74
2023-05-08T02:52:12.776Z,1017.8
2023-05-08T02:53:57.728Z,1017.79
2023-05-08T02:55:42.722Z,1017.81
2023-05-08T02:57:28.245Z,1017.75
2023-05-08T02:59:12.727Z,1017.72
2023-05-08T03:00:57.716Z,1017.67
2023-05-08T03:02:42.787Z,1017.73
2023-05-08T03:04:27.728Z,1017.71
2023-05-08T03:06:12.744Z,1017.71
2023-05-08T03:07:57.769Z,1017.69
2023-05-08T03:09:42.723Z,1017.7
2023-05-08T03:11:27.742Z,1017.69
2023-05-08T03:13:12.880Z,1017.65
2023-05-08T03:14:58.040Z,1017.69
2023-05-08T03:16:42.762Z,1017.6
2023-05-08T03:18:27.790Z,1017.69
2023-05-08T03:20:13.168Z,1017.52
2023-05-08T03:21:57.751Z,1017.53
2023-05-08T03:23:42.798Z,1017.64
2023-05-08T03:25:27.810Z,1017.63
2023-05-08T03:27:12.777Z,1017.56
2023-05-08T03:28:58.150Z,1017.53
2023-05-08T03:30:42.762Z,1017.57
2023-05-08T03:32:27.848Z,1017.65
2023-05-08T03:34:12.817Z,1017.61
2023-05-08T03:35:57.788Z,1017.66
2023-05-08T03:37:42.763Z,1017.65
2023-05-08T03:39:27.814Z,1017.68
2023-05-08T03:41:13.427Z,1017.67
2023-05-08T03:42:57.800Z,1017.62
2023-05-08T03:44:42.857Z,1017.59
2023-05-08T03:46:27.840Z,1017.63
2023-05-08T03:48:12.801Z,1017.6
2023-05-08T03:49:57.852Z,1017.69
2023-05-08T03:51:42.793Z,1017.6
2023-05-08T03:53:27.791Z,1017.59
2023-05-08T03:55:12.873Z,1017.67
2023-05-08T03:56:57.796Z,1017.68
2023-05-08T03:58:42.826Z,1017.69
2023-05-08T04:00:27.870Z,1017.66
2023-05-08T04:02:12.834Z,1017.65
2023-05-08T04:03:57.856Z,1017.62
2023-05-08T04:05:42.893Z,1017.64
2023-05-08T04:07:27.839Z,1017.71
2023-05-08T04:09:12.818Z,1017.75
2023-05-08T04:10:57.892Z,1017.82
2023-05-08T04:12:42.879Z,1017.75
2023-05-08T04:14:27.840Z,1017.76
2023-05-08T04:16:12.979Z,1017.75
2023-05-08T04:17:57.858Z,1017.72
2023-05-08T04:19:42.841Z,1017.72
2023-05-08T04:21:27.911Z,1017.65
2023-05-08T04:23:12.873Z,1017.75
2023-05-08T04:24:57.845Z,1017.69
2023-05-08T04:26:42.882Z,1017.72
2023-05-08T04:28:27.879Z,1017.76
2023-05-08T04:30:12.844Z,1017.83
2023-05-08T04:31:58.019Z,1017.75
2023-05-08T04:33:42.865Z,1017.8
2023-05-08T04:35:27.900Z,1017.8
2023-05-08T04:37:12.885Z,1017.73
2023-05-08T04:38:59.041Z,1017.74
2023-05-08T04:40:42.878Z,1017.77
2023-05-08T04:42:27.939Z,1017.8
2023-05-08T04:44:12.888Z,1017.82
2023-05-08T04:45:57.957Z,1017.78
2023-05-08T04:47:42.938Z,1017.83
2023-05-08T04:49:27.898Z,1017.74
2023-05-08T04:51:12.899Z,1017.84
2023-05-08T04:52:57.947Z,1017.88
2023-05-08T04:54:42.887Z,1017.75
2023-05-08T04:56:27.894Z,1017.8
2023-05-08T04:58:12.950Z,1017.86
2023-05-08T04:59:57.886Z,1017.87
2023-05-08T05:01:42.993Z,1017.87
2023-05-08T05:03:27.983Z,1017.88
2023-05-08T05:05:13.078Z,1017.97
2023-05-08T05:06:57.912Z,1017.88
2023-05-08T05:08:42.970Z,1018.01
2023-05-08T05:10:27.893Z,1017.97
2023-05-08T05:12:12.935Z,1017.93
2023-05-08T05:13:57.953Z,1018
2023-05-08T05:15:42.966Z,1018.01
2023-05-08T05:17:28.235Z,1018.1
2023-05-08T05:19:13.037Z,1018
2023-05-08T05:20:57.930Z,1018.07
2023-05-08T05:22:43.585Z,1018.07
2023-05-08T05:24:27.950Z,1018.07
2023-05-08T05:26:12.935Z,1018.09
2023-05-08T05:27:57.921Z,1018.13
2023-05-08T05:29:42.996Z,1018.15
2023-05-08T05:31:27.964Z,1018.06
2023-05-08T05:33:12.951Z,1018.11
2023-05-08T05:34:58.016Z,1018.1
2023-05-08T05:36:42.961Z,1018.2
2023-05-08T05:38:27.978Z,1018.12
2023-05-08T05:40:12.992Z,1018.15
2023-05-08T05:41:57.961Z,1018.06
2023-05-08T05:43:42.944Z,1018.13
2023-05-08T05:45:28.021Z,1018.08
2023-05-08T05:47:13.040Z,1018.08
2023-05-08T05:48:57.996Z,1018.08
2023-05-08T05:50:43.058Z,1018.03
2023-05-08T05:52:27.969Z,1018.16
2023-05-08T05:54:12.986Z,1018.04
2023-05-08T05:55:58.017Z,1018.07
2023-05-08T05:57:42.974Z,1018.08
2023-05-08T05:59:28.310Z,1018.03
2023-05-08T06:01:13.043Z,1018.16
2023-05-08T06:02:58.121Z,1018.21
2023-05-08T06:04:42.980Z,1018.2
2023-05-08T06:06:28.071Z,1018.27
2023-05-08T06:08:13.006Z,1018.2
2023-05-08T06:09:58.013Z,1018.24
2023-05-08T06:11:43.032Z,1018.12
2023-05-08T06:13:28.082Z,1018.06
2023-05-08T06:15:13.269Z,1018.09
2023-05-08T06:16:58.113Z,1018.15
2023-05-08T06:18:43.031Z,1018.18
2023-05-08T06:20:28.008Z,1018.22
2023-05-08T06:22:13.362Z,1018.3
2023-05-08T06:23:58.017Z,1018.3
2023-05-08T06:25:43.020Z,1018.47
2023-05-08T06:27:28.062Z,1018.39
2023-05-08T06:29:13.034Z,1018.52
2023-05-08T06:30:58.029Z,1018.58
2023-05-08T06:32:43.127Z,1018.56
2023-05-08T06:34:28.014Z,1018.56
2023-05-08T06:36:13.065Z,1018.54
2023-05-08T06:37:58.182Z,1018.48
2023-05-08T06:39:43.018Z,1018.51
2023-05-08T06:41:28.049Z,1018.52
2023-05-08T06:43:13.070Z,1018.51
2023-05-08T06:44:58.050Z,1018.51
2023-05-08T06:46:43.084Z,1018.38
2023-05-08T06:48:28.127Z,1018.45
2023-05-08T06:50:13.052Z,1018.46
2023-05-08T06:51:58.396Z,1018.56
2023-05-08T06:53:43.120Z,1018.52
2023-05-08T06:55:28.064Z,1018.56
2023-05-08T06:57:13.866Z,1018.5
2023-05-08T06:59:07.570Z,1018.64
2023-05-08T07:00:43.082Z,1018.62
2023-05-08T07:02:28.099Z,1018.62
2023-05-08T07:04:13.421Z,1018.6
2023-05-08T07:05:58.125Z,1018.58
2023-05-08T07:07:43.096Z,1018.6
2023-05-08T07:09:28.160Z,1018.56
2023-05-08T07:11:13.093Z,1018.61
2023-05-08T07:12:58.101Z,1018.7
2023-05-08T07:14:43.160Z,1018.62
2023-05-08T07:16:28.116Z,1018.69
2023-05-08T07:18:13.139Z,1018.58
2023-05-08T07:19:58.117Z,1018.69
2023-05-08T07:21:43.134Z,1018.59
2023-05-08T07:23:28.101Z,1018.58
2023-05-08T07:25:13.418Z,1018.72
2023-05-08T07:26:58.110Z,1018.63
2023-05-08T07:28:43.135Z,1018.65
2023-05-08T07:30:28.213Z,1018.72
2023-05-08T07:32:13.114Z,1018.71
2023-05-08T07:33:58.118Z,1018.61
2023-05-08T07:35:43.188Z,1018.69
2023-05-08T07:37:28.126Z,1018.81
2023-05-08T07:39:13.145Z,1018.76
2023-05-08T07:40:58.246Z,1018.79
2023-05-08T07:42:43.141Z,1018.71
2023-05-08T07:44:28.148Z,1018.7
2023-05-08T07:46:13.220Z,1018.69
2023-05-08T07:47:58.150Z,1018.77
2023-05-08T07:49:43.136Z,1018.75
2023-05-08T07:51:28.170Z,1018.79
2023-05-08T07:53:13.146Z,1018.81
2023-05-08T07:54:58.138Z,1018.74
2023-05-08T07:56:43.323Z,1018.8
2023-05-08T07:58:28.170Z,1018.8
2023-05-08T08:00:13.183Z,1018.8
2023-05-08T08:01:58.208Z,1018.79
2023-05-08T08:03:43.250Z,1018.76
2023-05-08T08:05:28.151Z,1018.76
2023-05-08T08:07:13.253Z,1018.7
2023-05-08T08:08:58.165Z,1018.7
2023-05-08T08:10:43.474Z,1018.75
2023-05-08T08:12:28.641Z,1018.77
2023-05-08T08:14:13.195Z,1018.64
2023-05-08T08:15:58.187Z,1018.76
2023-05-08T08:17:43.321Z,1018.74
2023-05-08T08:19:28.203Z,1018.76
2023-05-08T08:21:13.179Z,1018.82
2023-05-08T08:22:58.206Z,1018.65
2023-05-08T08:24:43.218Z,1018.78
2023-05-08T08:26:28.206Z,1018.84
2023-05-08T08:28:13.392Z,1018.72
2023-05-08T08:30:08.578Z,1018.75
2023-05-08T08:31:43.249Z,1018.69
2023-05-08T08:33:28.236Z,1018.71
2023-05-08T08:35:13.552Z,1018.76
2023-05-08T08:36:58.189Z,1018.7
2023-05-08T08:38:43.294Z,1018.82
2023-05-08T08:40:28.217Z,1018.74
2023-05-08T08:42:13.261Z,1018.61
2023-05-08T08:43:58.378Z,1018.71
2023-05-08T08:45:43.239Z,1018.64
2023-05-08T08:47:28.261Z,1018.63
2023-05-08T08:49:13.319Z,1018.58
2023-05-08T08:50:58.214Z,1018.64
2023-05-08T08:52:43.261Z,1018.7
2023-05-08T08:54:28.302Z,1018.59
2023-05-08T08:56:13.246Z,1018.63
2023-05-08T08:57:58.218Z,1018.7
2023-05-08T08:59:43.404Z,1018.75
2023-05-08T09:01:28.289Z,1018.71
2023-05-08T09:03:13.274Z,1018.64
2023-05-08T09:04:58.623Z,1018.6
2023-05-08T09:06:43.259Z,1018.7
2023-05-08T09:08:28.251Z,1018.75
2023-05-08T09:10:13.295Z,1018.79
2023-05-08T09:11:58.274Z,1018.74
2023-05-08T09:13:43.272Z,1018.62
2023-05-08T09:15:28.412Z,1018.71
2023-05-08T09:17:13.267Z,1018.64
2023-05-08T09:18:58.267Z,1018.78
2023-05-08T09:20:43.324Z,1018.7
2023-05-08T09:22:28.282Z,1018.62
2023-05-08T09:24:13.276Z,1018.7
2023-05-08T09:25:58.323Z,1018.81
2023-05-08T09:27:43.298Z,1018.76
2023-05-08T09:29:28.275Z,1018.77
2023-05-08T09:31:13.484Z,1018.83
2023-05-08T09:32:58.309Z,1018.62
2023-05-08T09:34:43.291Z,1018.62
2023-05-08T09:36:28.300Z,1018.57
2023-05-08T09:38:13.324Z,1018.7
2023-05-08T09:39:58.286Z,1018.5
2023-05-08T09:41:43.635Z,1018.72
2023-05-08T09:43:28.324Z,1018.65
2023-05-08T09:45:13.466Z,1018.6
2023-05-08T09:46:58.448Z,1018.6
2023-05-08T09:48:43.307Z,1018.7
2023-05-08T09:50:28.323Z,1018.69
2023-05-08T09:52:13.431Z,1018.59
2023-05-08T09:53:58.320Z,1018.58
2023-05-08T09:55:43.288Z,1018.69
2023-05-08T09:57:28.373Z,1018.7
2023-05-08T09:59:13.303Z,1018.72
2023-05-08T10:00:58.345Z,1018.73
2023-05-08T10:02:43.590Z,1018.63
2023-05-08T10:04:28.308Z,1018.7
2023-05-08T10:06:13.616Z,1018.62
2023-05-08T10:07:58.406Z,1018.69
2023-05-08T10:09:50.546Z,1018.59
2023-05-08T10:11:28.313Z,1018.61
2023-05-08T10:13:13.397Z,1018.54
2023-05-08T10:14:58.384Z,1018.55
2023-05-08T10:16:43.371Z,1018.65
2023-05-08T10:18:28.547Z,1018.53
2023-05-08T10:20:13.440Z,1018.6
2023-05-08T10:21:58.418Z,1018.61
2023-05-08T10:23:43.416Z,1018.59
2023-05-08T10:25:28.345Z,1018.63
2023-05-08T10:27:13.352Z,1018.65
2023-05-08T10:28:58.540Z,1018.61
2023-05-08T10:30:43.400Z,1018.7
2023-05-08T10:32:28.382Z,1018.61
2023-05-08T10:34:13.835Z,1018.53
2023-05-08T10:35:58.367Z,1018.53
2023-05-08T10:37:43.393Z,1018.41
2023-05-08T10:39:28.408Z,1018.45
2023-05-08T10:41:13.396Z,1018.48
2023-05-08T10:42:58.376Z,1018.5
2023-05-08T10:44:43.412Z,1018.42
2023-05-08T10:46:28.398Z,1018.46
2023-05-08T10:48:13.464Z,1018.55
2023-05-08T10:49:58.420Z,1018.41
2023-05-08T10:51:43.404Z,1018.45
2023-05-08T10:53:28.375Z,1018.44
2023-05-08T10:55:14.381Z,1018.45
2023-05-08T10:56:58.368Z,1018.35
2023-05-08T10:58:43.402Z,1018.42
2023-05-08T11:00:28.426Z,1018.42
2023-05-08T11:02:13.467Z,1018.48
2023-05-08T11:03:58.492Z,1018.39
2023-05-08T11:05:43.477Z,1018.36
2023-05-08T11:07:28.384Z,1018.33
2023-05-08T11:09:13.393Z,1018.32
2023-05-08T11:10:58.446Z,1018.27
2023-05-08T11:12:43.445Z,1018.35
2023-05-08T11:14:28.394Z,1018.33
2023-05-08T11:16:13.462Z,1018.37
2023-05-08T11:17:58.466Z,1018.38
2023-05-08T11:19:43.728Z,1018.38
2023-05-08T11:21:28.458Z,1018.34
2023-05-08T11:23:13.763Z,1018.28
2023-05-08T11:24:58.436Z,1018.35
2023-05-08T11:26:43.439Z,1018.43
2023-05-08T11:28:28.420Z,1018.23
2023-05-08T11:30:13.586Z,1018.29
2023-05-08T11:31:58.551Z,1018.3
2023-05-08T11:33:43.441Z,1018.29
2023-05-08T11:35:28.495Z,1018.17
2023-05-08T11:37:13.484Z,1018.22
2023-05-08T11:38:58.442Z,1018.19
2023-05-08T11:40:43.464Z,1018.23
2023-05-08T11:42:28.522Z,1018.14
2023-05-08T11:44:14.602Z,1018.26
2023-05-08T11:45:58.477Z,1018.16
2023-05-08T11:47:43.570Z,1018.23
2023-05-08T11:49:29.920Z,1018.23
2023-05-08T11:51:13.485Z,1018.08
2023-05-08T11:52:58.560Z,1018.09
2023-05-08T11:54:43.472Z,1018.06
2023-05-08T11:56:28.471Z,1018.18
2023-05-08T11:58:13.533Z,1018.17
2023-05-08T11:59:58.488Z,1018.12
2023-05-08T12:01:46.611Z,1018.16
2023-05-08T12:03:28.711Z,1018.15
2023-05-08T12:05:13.519Z,1018.19
2023-05-08T12:06:58.567Z,1018.21
2023-05-08T12:08:43.553Z,1018.17
2023-05-08T12:10:28.482Z,1018.11
2023-05-08T12:12:13.808Z,1018.14
2023-05-08T12:13:58.553Z,1018.21
2023-05-08T12:15:43.796Z,1018.23
2023-05-08T12:17:28.548Z,1018.19
2023-05-08T12:19:13.547Z,1018.15
2023-05-08T12:20:58.566Z,1018.13
2023-05-08T12:22:43.522Z,1018.14
2023-05-08T12:24:28.604Z,1018.07
2023-05-08T12:26:13.530Z,1018.12
2023-05-08T12:27:58.546Z,1018.17
2023-05-08T12:29:43.568Z,1018.17
2023-05-08T12:31:28.549Z,1018.18
2023-05-08T12:33:13.568Z,1018.08
2023-05-08T12:34:58.717Z,1018.12
2023-05-08T12:36:43.556Z,1018.07
2023-05-08T12:38:28.566Z,1018.04
2023-05-08T12:40:13.930Z,1018.03
2023-05-08T12:42:00.211Z,1017.99
2023-05-08T12:43:43.545Z,1017.96
2023-05-08T12:45:28.601Z,1017.95
2023-05-08T12:47:13.529Z,1017.9
2023-05-08T12:48:58.554Z,1017.88
2023-05-08T12:50:43.608Z,1017.95
2023-05-08T12:52:28.560Z,1017.95
2023-05-08T12:54:13.580Z,1017.94
2023-05-08T12:55:58.705Z,1017.91
2023-05-08T12:57:43.572Z,1017.93
2023-05-08T12:59:28.565Z,1017.9
2023-05-08T13:01:13.863Z,1017.8
2023-05-08T13:02:58.605Z,1017.79
2023-05-08T13:04:43.659Z,1017.79
2023-05-08T13:06:28.604Z,1017.82
2023-05-08T13:08:13.615Z,1017.85
2023-05-08T13:09:58.892Z,1017.78
2023-05-08T13:11:43.760Z,1017.61
2023-05-08T13:13:28.720Z,1017.7
2023-05-08T13:15:13.786Z,1017.68
2023-05-08T13:16:58.762Z,1017.65
2023-05-08T13:18:43.630Z,1017.76
2023-05-08T13:20:28.599Z,1017.67
2023-05-08T13:22:13.649Z,1017.63
2023-05-08T13:23:58.654Z,1017.68
2023-05-08T13:25:43.627Z,1017.64
2023-05-08T13:27:28.769Z,1017.62
2023-05-08T13:29:13.638Z,1017.62
2023-05-08T13:30:58.622Z,1017.46
2023-05-08T13:32:43.675Z,1017.58
2023-05-08T13:34:28.646Z,1017.5
2023-05-08T13:36:13.697Z,1017.53
2023-05-08T13:37:58.682Z,1017.6
2023-05-08T13:39:43.667Z,1017.59
2023-05-08T13:41:28.661Z,1017.58
2023-05-08T13:43:13.866Z,1017.59
2023-05-08T13:44:58.707Z,1017.48
2023-05-08T13:46:43.662Z,1017.46
2023-05-08T13:48:28.681Z,1017.48
2023-05-08T13:50:13.653Z,1017.49
2023-05-08T13:51:58.703Z,1017.42
2023-05-08T13:53:43.734Z,1017.51
2023-05-08T13:55:28.682Z,1017.36
2023-05-08T13:57:13.690Z,1017.5
2023-05-08T13:58:58.833Z,1017.44
2023-05-08T14:00:43.646Z,1017.41
2023-05-08T14:02:28.750Z,1017.36
2023-05-08T14:04:13.869Z,1017.37
2023-05-08T14:05:58.674Z,1017.29
2023-05-08T14:07:43.989Z,1017.32
2023-05-08T14:09:28.726Z,1017.34
2023-05-08T14:11:13.978Z,1017.27
2023-05-08T14:12:58.761Z,1017.3
2023-05-08T14:14:43.919Z,1017.26
2023-05-08T14:16:28.726Z,1017.26
2023-05-08T14:18:13.890Z,1017.24
2023-05-08T14:19:58.738Z,1017.27
2023-05-08T14:21:43.692Z,1017.29
2023-05-08T14:23:28.741Z,1017.31
2023-05-08T14:25:13.873Z,1017.39
2023-05-08T14:26:58.707Z,1017.34
2023-05-08T14:28:43.713Z,1017.33
2023-05-08T14:30:28.917Z,1017.33
2023-05-08T14:32:13.726Z,1017.36
2023-05-08T14:33:58.721Z,1017.2
2023-05-08T14:35:43.746Z,1017.25
2023-05-08T14:37:28.727Z,1017.25
2023-05-08T14:39:13.734Z,1017.19
2023-05-08T14:40:58.845Z,1017.37
2023-05-08T14:42:43.727Z,1017.38
2023-05-08T14:44:28.763Z,1017.34
2023-05-08T14:46:13.857Z,1017.35
2023-05-08T14:47:58.780Z,1017.34
2023-05-08T14:49:43.732Z,1017.32
2023-05-08T14:51:28.816Z,1017.27
2023-05-08T14:53:13.780Z,1017.31
2023-05-08T14:54:58.872Z,1017.33
2023-05-08T14:56:46.943Z,1017.34
2023-05-08T14:58:28.746Z,1017.29
2023-05-08T15:00:14.011Z,1017.39
2023-05-08T15:01:58.981Z,1017.35
2023-05-08T15:03:43.895Z,1017.4
2023-05-08T15:05:28.750Z,1017.38
2023-05-08T15:07:13.793Z,1017.51
2023-05-08T15:08:58.754Z,1017.37
2023-05-08T15:10:43.755Z,1017.38
2023-05-08T15:12:28.840Z,1017.34
2023-05-08T15:14:13.787Z,1017.42
2023-05-08T15:15:58.757Z,1017.34
2023-05-08T15:17:44.279Z,1017.36
2023-05-08T15:19:28.780Z,1017.38
2023-05-08T15:21:14.082Z,1017.33
2023-05-08T15:22:58.810Z,1017.28
2023-05-08T15:24:43.817Z,1017.3
2023-05-08T15:26:28.786Z,1017.35
2023-05-08T15:28:13.852Z,1017.29
2023-05-08T15:29:58.785Z,1017.35
2023-05-08T15:31:43.806Z,1017.38
2023-05-08T15:33:28.984Z,1017.44
2023-05-08T15:35:13.940Z,1017.36
2023-05-08T15:36:58.805Z,1017.35
2023-05-08T15:38:43.876Z,1017.25
2023-05-08T15:40:28.801Z,1017.25
2023-05-08T15:42:13.795Z,1017.23
2023-05-08T15:43:58.845Z,1017.22
2023-05-08T15:45:43.833Z,1017.29
2023-05-08T15:47:28.847Z,1017.2
2023-05-08T15:49:14.021Z,1017.14
2023-05-08T15:50:59.155Z,1017.35
2023-05-08T15:52:43.811Z,1017.15
2023-05-08T15:54:28.863Z,1017.18
2023-05-08T15:56:13.863Z,1017.18
2023-05-08T15:57:58.838Z,1017.22
2023-05-08T15:59:43.929Z,1017.23
2023-05-08T16:01:29.239Z,1017.26
2023-05-08T16:03:13.953Z,1017.21
2023-05-08T16:04:59.013Z,1017.23
2023-05-08T16:06:43.868Z,1017.25
2023-05-08T16:08:28.844Z,1017.2
2023-05-08T16:10:13.963Z,1017.2
2023-05-08T16:11:58.928Z,1017.13
2023-05-08T16:13:43.858Z,1017.18
2023-05-08T16:15:28.989Z,1017.19
2023-05-08T16:17:13.908Z,1017.16
2023-05-08T16:18:58.881Z,1017.11
2023-05-08T16:20:44.081Z,1017.14
2023-05-08T16:22:28.869Z,1017.07
2023-05-08T16:24:13.891Z,1017.17
2023-05-08T16:25:58.928Z,1017.09
2023-05-08T16:27:43.884Z,1017.19
2023-05-08T16:29:28.911Z,1017.13
2023-05-08T16:31:13.973Z,1017.13
2023-05-08T16:32:58.956Z,1017.11
2023-05-08T16:34:43.926Z,1017.05
2023-05-08T16:36:29.147Z,1017.08
2023-05-08T16:38:13.884Z,1017.13
2023-05-08T16:39:59.026Z,1017.13
2023-05-08T16:41:43.952Z,1017.1
2023-05-08T16:43:28.909Z,1017.02
2023-05-08T16:45:14.416Z,1017.06
2023-05-08T16:46:59.080Z,1017.12
2023-05-08T16:48:43.915Z,1017.11
2023-05-08T16:50:28.926Z,1017.03
2023-05-08T16:52:14.108Z,1016.96
2023-05-08T16:53:59.522Z,1017.01
2023-05-08T16:55:43.950Z,1017.01
2023-05-08T16:57:29.002Z,1017.06
2023-05-08T16:59:13.937Z,1017.08
2023-05-08T17:00:58.976Z,1017.03
2023-05-08T17:02:44.128Z,1016.99
2023-05-08T17:04:30.838Z,1017.04
2023-05-08T17:06:13.934Z,1017
2023-05-08T17:07:59.148Z,1017.01
2023-05-08T17:09:43.964Z,1017.01
2023-05-08T17:11:28.981Z,1017.03
2023-05-08T17:13:14.129Z,1017.04
2023-05-08T17:14:58.962Z,1017.1
2023-05-08T17:16:44.295Z,1017.08
2023-05-08T17:18:29.036Z,1017.06
2023-05-08T17:20:14.197Z,1017
2023-05-08T17:21:59.869Z,1017.09
2023-05-08T17:23:44.136Z,1017.06
2023-05-08T17:25:28.992Z,1017.07
2023-05-08T17:27:13.976Z,1017.11
2023-05-08T17:28:58.983Z,1017.02
2023-05-08T17:30:44.879Z,1017.05
2023-05-08T17:32:29.024Z,1017.09
2023-05-08T17:34:14.103Z,1017.11
2023-05-08T17:35:58.996Z,1017.08
2023-05-08T17:37:43.981Z,1017.1
2023-05-08T17:39:29.137Z,1017.15
2023-05-08T17:41:14.026Z,1017.09
2023-05-08T17:42:58.965Z,1017.08
2023-05-08T17:44:44.096Z,1017.07
2023-05-08T17:46:29.014Z,1017.14
2023-05-08T17:48:13.990Z,1017.17
2023-05-08T17:49:59.059Z,1017.18
2023-05-08T17:51:44.008Z,1017.13
2023-05-08T17:53:29.010Z,1017.13
2023-05-08T17:55:14.209Z,1017.22
2023-05-08T17:56:59.025Z,1017.28
2023-05-08T17:58:44.026Z,1017.3
2023-05-08T18:00:29.052Z,1017.19
2023-05-08T18:02:14.058Z,1017.2
2023-05-08T18:03:59.034Z,1017.18
2023-05-08T18:05:44.096Z,1017.15
2023-05-08T18:07:29.033Z,1017.15
2023-05-08T18:09:14.045Z,1017.13
2023-05-08T18:10:59.257Z,1017.14
2023-05-08T18:12:44.103Z,1017.07
2023-05-08T18:14:29.034Z,1017.02
2023-05-08T18:16:14.138Z,1017.1
2023-05-08T18:17:59.124Z,1017.02
2023-05-08T18:19:44.095Z,1017.13
2023-05-08T18:21:29.082Z,1017.12
2023-05-08T18:23:14.076Z,1017.15
2023-05-08T18:24:59.070Z,1017.09
2023-05-08T18:26:44.262Z,1017.16
2023-05-08T18:28:29.077Z,1017.18
2023-05-08T18:30:14.303Z,1017.08
2023-05-08T18:31:59.111Z,1017.12
2023-05-08T18:33:44.085Z,1017.05
2023-05-08T18:35:29.403Z,1017.16
2023-05-08T18:37:14.159Z,1017.09
2023-05-08T18:38:59.109Z,1017.06
2023-05-08T18:40:44.077Z,1017.06
2023-05-08T18:42:29.245Z,1017.1
2023-05-08T18:44:14.114Z,1017.09
2023-05-08T18:45:59.124Z,1017.11
2023-05-08T18:47:44.120Z,1017.03
2023-05-08T18:49:29.107Z,1017.01
2023-05-08T18:51:14.129Z,1017.02
2023-05-08T18:52:59.159Z,1016.98
2023-05-08T18:54:44.146Z,1016.99
2023-05-08T18:56:29.094Z,1017.02
2023-05-08T18:58:14.251Z,1017.08
2023-05-08T18:59:59.142Z,1017.12
2023-05-08T19:01:44.136Z,1017.02
2023-05-08T19:03:29.211Z,1017.04
2023-05-08T19:05:14.145Z,1017.06
2023-05-08T19:06:59.130Z,1017.02
2023-05-08T19:08:44.139Z,1017.02
2023-05-08T19:10:29.145Z,1016.98
2023-05-08T19:12:14.425Z,1017.07
2023-05-08T19:13:59.330Z,1017.01
2023-05-08T19:15:44.197Z,1017.07
2023-05-08T19:17:29.175Z,1017.08
2023-05-08T19:19:14.178Z,1016.93
2023-05-08T19:20:59.478Z,1016.95
2023-05-08T19:22:44.173Z,1016.93
2023-05-08T19:24:29.231Z,1016.97
2023-05-08T19:26:14.168Z,1016.98
2023-05-08T19:27:59.165Z,1016.97
2023-05-08T19:29:44.334Z,1016.86
2023-05-08T19:31:29.846Z,1016.92
2023-05-08T19:33:14.176Z,1016.95
2023-05-08T19:34:59.262Z,1016.91
2023-05-08T19:36:44.189Z,1017
2023-05-08T19:38:29.202Z,1017.01
2023-05-08T19:40:14.409Z,1016.96
2023-05-08T19:41:59.186Z,1017.04
2023-05-08T19:43:44.202Z,1016.94
2023-05-08T19:45:29.369Z,1016.98
2023-05-08T19:47:14.217Z,1016.99
2023-05-08T19:48:59.196Z,1017.05
2023-05-08T19:50:44.240Z,1017.07
2023-05-08T19:52:29.197Z,1017.01
2023-05-08T19:54:14.221Z,1016.94
2023-05-08T19:55:59.346Z,1016.93
2023-05-08T19:57:44.222Z,1016.93
2023-05-08T19:59:29.219Z,1016.89
2023-05-08T20:01:14.397Z,1016.94
2023-05-08T20:02:59.265Z,1016.86
2023-05-08T20:05:04.118Z,1016.84
2023-05-08T20:06:29.934Z,1016.85
2023-05-08T20:08:14.234Z,1016.81
2023-05-08T20:09:59.272Z,1016.85
2023-05-08T20:11:44.257Z,1016.92
2023-05-08T20:13:29.256Z,1016.78
2023-05-08T20:15:14.368Z,1016.91
2023-05-08T20:16:59.388Z,1016.87
2023-05-08T20:18:44.251Z,1016.9
2023-05-08T20:20:29.218Z,1016.82
2023-05-08T20:22:14.274Z,1016.86
2023-05-08T20:23:59.240Z,1016.77
2023-05-08T20:25:44.249Z,1016.9
2023-05-08T20:27:29.320Z,1016.85
2023-05-08T20:29:14.887Z,1016.77
2023-05-08T20:30:59.262Z,1016.82
2023-05-08T20:32:44.467Z,1016.9
2023-05-08T20:34:29.570Z,1016.82
2023-05-08T20:36:14.284Z,1016.78
2023-05-08T20:37:59.296Z,1016.69
2023-05-08T20:39:44.286Z,1016.74
2023-05-08T20:41:29.274Z,1016.66
2023-05-08T20:43:14.338Z,1016.66
2023-05-08T20:44:59.272Z,1016.62
2023-05-08T20:46:44.324Z,1016.69
2023-05-08T20:48:29.452Z,1016.67
2023-05-08T20:50:14.449Z,1016.72
2023-05-08T20:51:59.295Z,1016.71
2023-05-08T20:53:44.326Z,1016.78
2023-05-08T20:55:29.375Z,1016.78
2023-05-08T20:57:14.340Z,1016.71
2023-05-08T20:58:59.342Z,1016.65
2023-05-08T21:00:44.302Z,1016.69
2023-05-08T21:02:29.347Z,1016.69
2023-05-08T21:04:14.577Z,1016.63
2023-05-08T21:05:59.317Z,1016.64
2023-05-08T21:07:44.312Z,1016.64
2023-05-08T21:09:29.371Z,1016.6
2023-05-08T21:11:14.328Z,1016.65
2023-05-08T21:12:59.387Z,1016.72
2023-05-08T21:14:44.418Z,1016.65